Time;durP1;ratioP1;P1;durP2;ratioP2;P2;SDS_P1;SDS_P2;PMS_P1;PMS_P2;Temp;Humidity;BMP_temperature;BMP_pressure;BME280_temperature;BME280_humidity;BME280_pressure;Samples;Min_cycle;Max_cycle;Signal;HPM_P1;HPM_P2
2023/11/16 00:00:05;;;;;;;11.00;5.68;;;;;;;12.32;77.63;100983.22;4954896;28;97301;-74
2023/11/16 00:02:34;;;;;;;6.85;5.28;;;;;;;12.41;78.02;100988.13;4959093;28;99275;-75
2023/11/16 00:05:01;;;;;;;8.60;5.53;;;;;;;12.70;76.26;100984.34;4951237;28;99060;-75
2023/11/16 00:07:28;;;;;;;10.10;5.95;;;;;;;12.33;78.11;100984.94;4956350;28;96875;-74
2023/11/16 00:09:55;;;;;;;9.30;4.90;;;;;;;12.51;77.38;100984.22;4955592;28;97166;-75
2023/11/16 00:12:21;;;;;;;6.43;4.78;;;;;;;12.47;77.47;100992.34;4959280;28;98897;-75
2023/11/16 00:14:48;;;;;;;10.35;5.30;;;;;;;12.63;77.25;100981.06;4954866;28;98760;-75
2023/11/16 00:17:15;;;;;;;8.80;4.93;;;;;;;12.73;76.27;100981.56;4951628;28;97184;-73
2023/11/16 00:19:43;;;;;;;6.43;5.07;;;;;;;12.56;76.71;100973.41;4955798;28;96793;-73
2023/11/16 00:22:09;;;;;;;8.23;5.30;;;;;;;12.80;76.13;100980.38;4958862;28;101390;-72
2023/11/16 00:24:36;;;;;;;7.18;4.65;;;;;;;12.55;76.83;100969.03;4966307;28;98670;-72
2023/11/16 00:27:03;;;;;;;8.10;4.60;;;;;;;12.70;76.51;100969.28;4950328;28;97638;-73
2023/11/16 00:29:30;;;;;;;6.03;4.47;;;;;;;12.65;76.49;100975.72;4952944;28;98618;-75
2023/11/16 00:31:58;;;;;;;7.93;4.55;;;;;;;12.76;75.36;100970.81;4948866;28;101521;-75
2023/11/16 00:34:25;;;;;;;8.27;4.45;;;;;;;12.72;76.16;100963.94;4945080;28;100745;-75
2023/11/16 00:36:53;;;;;;;5.75;4.00;;;;;;;12.85;75.69;100966.94;4955059;28;97941;-74
2023/11/16 00:39:20;;;;;;;6.95;4.70;;;;;;;12.70;76.62;100957.81;4956570;28;97336;-73
2023/11/16 00:41:47;;;;;;;6.28;4.32;;;;;;;12.60;76.56;100954.66;4960889;28;98571;-75
2023/11/16 00:44:14;;;;;;;14.73;4.35;;;;;;;12.55;76.75;100954.00;4954364;28;97784;-74
2023/11/16 00:46:43;;;;;;;9.27;4.60;;;;;;;12.78;76.22;100955.72;4952464;28;96776;-76
2023/11/16 00:49:10;;;;;;;6.22;4.10;;;;;;;12.75;74.75;100954.06;4955920;28;99217;-74
2023/11/16 00:51:37;;;;;;;7.32;4.10;;;;;;;12.67;75.80;100955.28;4957983;28;101060;-74
2023/11/16 00:54:05;;;;;;;9.15;3.88;;;;;;;12.66;75.33;100956.22;4957566;28;99693;-74
2023/11/16 00:56:32;;;;;;;8.80;3.95;;;;;;;12.83;74.75;100953.75;4950384;28;97027;-75
2023/11/16 00:58:58;;;;;;;7.50;3.55;;;;;;;12.77;74.85;100954.00;4953001;28;97181;-73
2023/11/16 01:01:26;;;;;;;8.48;3.55;;;;;;;12.72;74.57;100951.53;4956507;28;99262;-73
2023/11/16 01:03:53;;;;;;;7.35;3.42;;;;;;;12.59;75.03;100946.81;4957804;28;99116;-74
2023/11/16 01:06:20;;;;;;;5.70;3.35;;;;;;;12.52;75.58;100953.28;4957128;28;96984;-73
2023/11/16 01:08:46;;;;;;;9.15;4.00;;;;;;;12.71;74.60;100948.94;4961620;28;97115;-74
2023/11/16 01:11:16;;;;;;;6.82;2.80;;;;;;;12.59;74.95;100954.75;4953610;28;99030;-74
2023/11/16 01:13:44;;;;;;;7.00;4.00;;;;;;;12.33;75.97;100946.06;4958950;28;100073;-73
2023/11/16 01:16:14;;;;;;;6.95;2.97;;;;;;;12.18;76.72;100951.94;4962189;28;97421;-72
2023/11/16 01:18:49;;;;;;;11.23;3.22;;;;;;;12.47;75.35;100950.78;4965087;28;96945;-73
2023/11/16 01:21:16;;;;;;;6.63;2.90;;;;;;;12.67;74.89;100947.34;4959834;28;99191;-74
2023/11/16 01:23:44;;;;;;;9.45;3.13;;;;;;;12.54;74.77;100949.63;4953044;28;98947;-73
2023/11/16 01:26:14;;;;;;;4.95;2.85;;;;;;;12.40;75.94;100953.78;4952113;28;97121;-72
2023/11/16 01:28:45;;;;;;;8.48;3.35;;;;;;;12.34;75.22;100945.13;4957382;28;97890;-72
2023/11/16 01:31:13;;;;;;;5.40;3.05;;;;;;;12.50;75.46;100955.09;4957972;28;98907;-72
2023/11/16 01:33:40;;;;;;;7.65;3.15;;;;;;;12.57;75.27;100951.28;4954679;28;98703;-73
2023/11/16 01:36:08;;;;;;;7.53;2.88;;;;;;;12.55;75.06;100947.84;4949518;28;96783;-72
2023/11/16 01:38:36;;;;;;;7.95;3.13;;;;;;;12.58;75.27;100947.72;4948622;28;96890;-72
2023/11/16 01:41:04;;;;;;;8.77;3.08;;;;;;;12.57;75.28;100946.00;4940932;28;99352;-73
2023/11/16 01:43:32;;;;;;;9.85;3.13;;;;;;;12.66;74.71;100940.31;4949198;28;98593;-72
2023/11/16 01:46:05;;;;;;;7.05;2.78;;;;;;;12.46;75.39;100943.78;4950146;28;96854;-73
2023/11/16 01:48:32;;;;;;;9.15;3.33;;;;;;;12.51;75.51;100940.94;4948734;28;99092;-73
2023/11/16 01:50:59;;;;;;;9.73;2.70;;;;;;;12.73;74.01;100937.34;4953583;28;99297;-71
2023/11/16 01:53:27;;;;;;;8.93;3.70;;;;;;;12.51;74.51;100935.63;4946738;28;99247;-73
2023/11/16 01:55:55;;;;;;;10.43;3.00;;;;;;;12.59;74.38;100933.56;4959847;28;97377;-73
2023/11/16 01:58:22;;;;;;;7.95;2.97;;;;;;;12.42;75.24;100930.69;4953470;28;97600;-72
2023/11/16 02:00:49;;;;;;;8.10;3.05;;;;;;;12.56;75.25;100931.00;4953515;28;98945;-73
2023/11/16 02:03:16;;;;;;;6.65;2.92;;;;;;;12.43;75.65;100930.66;4963184;28;97453;-74
2023/11/16 02:05:43;;;;;;;10.40;3.33;;;;;;;12.51;75.06;100928.56;4955733;28;96782;-72
2023/11/16 02:08:10;;;;;;;11.45;3.35;;;;;;;12.46;75.57;100919.94;4957042;28;97158;-73
2023/11/16 02:10:37;;;;;;;10.38;3.50;;;;;;;12.52;75.04;100926.78;4955712;28;99973;-73
2023/11/16 02:13:15;;;;;;;9.35;3.65;;;;;;;12.53;74.91;100921.41;4961384;28;98816;-72
2023/11/16 02:15:43;;;;;;;8.25;3.03;;;;;;;12.53;75.32;100923.19;4954606;28;98940;-72
2023/11/16 02:18:10;;;;;;;8.68;3.10;;;;;;;12.52;75.21;100919.69;4955434;28;96913;-72
2023/11/16 02:20:38;;;;;;;7.97;3.28;;;;;;;12.29;75.77;100911.78;4958301;28;99031;-73
2023/11/16 02:23:06;;;;;;;6.72;2.78;;;;;;;12.50;74.68;100910.06;4958288;28;98886;-73
2023/11/16 02:25:42;;;;;;;7.97;2.78;;;;;;;12.48;74.96;100907.47;4962944;28;97006;-73
2023/11/16 02:28:08;;;;;;;5.45;2.78;;;;;;;12.50;74.82;100908.28;4961508;28;96729;-71
2023/11/16 02:30:35;;;;;;;5.25;2.75;;;;;;;12.31;74.87;100902.84;4956591;28;99701;-72
2023/11/16 02:33:03;;;;;;;12.38;2.85;;;;;;;12.56;74.53;100910.66;4957138;28;99272;-73
2023/11/16 02:35:29;;;;;;;6.55;2.83;;;;;;;12.50;75.22;100910.91;4958596;28;96847;-73
2023/11/16 02:37:55;;;;;;;8.02;3.30;;;;;;;12.62;74.61;100906.91;4947075;28;96861;-72
2023/11/16 02:40:23;;;;;;;7.30;2.92;;;;;;;12.51;75.01;100911.78;4953037;28;99006;-73
2023/11/16 02:42:50;;;;;;;5.40;2.95;;;;;;;12.54;74.38;100901.03;4951750;28;98797;-72
2023/11/16 02:45:16;;;;;;;6.53;2.83;;;;;;;12.43;75.15;100908.56;4959288;28;96929;-71
2023/11/16 02:47:43;;;;;;;8.75;2.75;;;;;;;12.23;75.93;100909.38;4960052;28;96829;-70
2023/11/16 02:50:09;;;;;;;10.40;2.90;;;;;;;12.37;76.07;100907.91;4956420;28;99139;-70
2023/11/16 02:52:36;;;;;;;8.68;2.55;;;;;;;12.11;76.78;100900.13;4951621;28;99037;-70
2023/11/16 02:55:03;;;;;;;11.68;2.85;;;;;;;12.30;76.16;100903.78;4949366;28;97321;-70
2023/11/16 02:57:32;;;;;;;9.15;2.65;;;;;;;12.36;75.92;100895.56;4950740;28;97220;-71
2023/11/16 02:59:59;;;;;;;9.73;3.10;;;;;;;12.35;75.92;100896.50;4957688;28;99653;-70
2023/11/16 03:02:25;;;;;;;14.32;3.38;;;;;;;12.37;76.02;100894.66;4960008;28;101546;-70
2023/11/16 03:04:51;;;;;;;10.38;3.30;;;;;;;12.20;76.41;100894.47;4951491;28;97462;-72
2023/11/16 03:07:18;;;;;;;12.45;3.00;;;;;;;12.32;76.36;100893.13;4959720;28;97211;-71
2023/11/16 03:09:44;;;;;;;9.32;3.10;;;;;;;12.55;75.09;100897.47;4956998;28;98975;-71
2023/11/16 03:12:13;;;;;;;11.88;2.60;;;;;;;12.46;75.12;100895.22;4953285;28;99218;-73
2023/11/16 03:14:41;;;;;;;8.50;2.70;;;;;;;12.29;75.63;100888.78;4961098;28;97720;-74
2023/11/16 03:17:10;;;;;;;13.15;2.92;;;;;;;12.40;75.89;100887.50;4952761;28;96829;-74
2023/11/16 03:19:40;;;;;;;7.85;2.40;;;;;;;12.42;75.52;100877.69;4951930;28;99022;-74
2023/11/16 03:22:07;;;;;;;8.18;2.97;;;;;;;12.43;75.25;100885.59;4948302;28;98349;-72
2023/11/16 03:24:34;;;;;;;7.72;2.72;;;;;;;12.41;75.68;100886.56;4960600;28;96744;-73
2023/11/16 03:27:00;;;;;;;8.50;2.60;;;;;;;12.31;76.17;100880.78;4959209;28;98152;-72
2023/11/16 03:29:29;;;;;;;7.25;2.72;;;;;;;12.38;76.25;100891.09;4958715;28;99473;-72
2023/11/16 03:31:57;;;;;;;7.80;2.80;;;;;;;12.20;76.38;100886.53;4963116;28;99025;-72
2023/11/16 03:34:23;;;;;;;8.25;2.55;;;;;;;12.30;76.01;100879.94;4956159;28;98728;-72
2023/11/16 03:36:50;;;;;;;8.27;2.50;;;;;;;12.40;75.07;100882.22;4952460;28;97574;-72
2023/11/16 03:39:17;;;;;;;10.82;2.63;;;;;;;12.41;75.29;100875.97;4952730;28;98954;-72
2023/11/16 03:41:43;;;;;;;5.75;2.70;;;;;;;12.35;75.81;100877.94;4950689;28;98665;-72
2023/11/16 03:44:09;;;;;;;8.35;2.55;;;;;;;12.29;76.03;100878.19;4958665;28;97066;-71
2023/11/16 03:46:36;;;;;;;8.20;2.90;;;;;;;12.26;75.82;100874.81;4956093;28;97686;-72
2023/11/16 03:49:03;;;;;;;8.27;2.58;;;;;;;12.39;75.50;100878.69;4964650;28;98994;-71
2023/11/16 03:51:30;;;;;;;7.88;2.55;;;;;;;12.38;75.18;100875.19;4957176;28;98840;-71
2023/11/16 03:53:56;;;;;;;7.60;2.40;;;;;;;12.54;74.72;100871.88;4947558;28;96801;-71
2023/11/16 03:56:23;;;;;;;8.05;2.92;;;;;;;12.32;75.27;100874.56;4951454;28;96763;-72
2023/11/16 03:58:49;;;;;;;14.20;2.38;;;;;;;12.34;75.80;100870.06;4946452;28;99164;-72
2023/11/16 04:01:15;;;;;;;10.35;2.35;;;;;;;12.17;75.59;100870.75;4949051;28;99044;-73
2023/11/16 04:03:43;;;;;;;8.80;2.22;;;;;;;12.18;75.99;100869.81;4950061;28;97835;-73
2023/11/16 04:06:19;;;;;;;12.57;2.72;;;;;;;12.52;74.64;100869.31;4949964;28;98629;-73
2023/11/16 04:08:46;;;;;;;14.50;2.33;;;;;;;12.57;74.11;100869.13;4951677;28;98911;-72
2023/11/16 04:11:13;;;;;;;9.55;2.45;;;;;;;12.38;74.84;100855.78;4948757;28;98783;-72
2023/11/16 04:13:39;;;;;;;11.13;2.97;;;;;;;12.29;74.99;100858.78;4950475;28;96865;-71
2023/11/16 04:16:17;;;;;;;5.00;2.15;;;;;;;12.10;76.03;100855.16;4956309;28;96858;-72
2023/11/16 04:18:44;;;;;;;7.13;2.35;;;;;;;12.20;75.91;100846.78;4950628;28;101927;-73
2023/11/16 04:21:11;;;;;;;7.28;2.10;;;;;;;12.28;75.25;100855.28;4949046;28;101685;-74
2023/11/16 04:23:39;;;;;;;8.15;1.98;;;;;;;12.46;74.32;100842.22;4950276;28;97781;-75
2023/11/16 04:26:08;;;;;;;6.18;2.08;;;;;;;12.65;73.05;100851.97;4951410;28;97875;-73
2023/11/16 04:28:36;;;;;;;8.20;2.83;;;;;;;12.34;73.66;100847.06;4949731;28;99994;-74
2023/11/16 04:31:03;;;;;;;5.68;2.03;;;;;;;12.35;74.27;100840.84;4948225;28;98559;-74
2023/11/16 04:33:29;;;;;;;9.80;1.98;;;;;;;12.41;73.89;100850.31;4950600;28;96845;-74
2023/11/16 04:35:55;;;;;;;;;;;;;;;12.32;73.72;100848.06;4950964;28;97015;-76
2023/11/16 04:38:22;;;;;;;6.43;2.25;;;;;;;12.38;74.20;100838.09;4949835;28;99160;-75
2023/11/16 04:40:50;;;;;;;8.05;2.00;;;;;;;12.51;73.53;100834.91;4948532;28;99694;-75
2023/11/16 04:43:16;;;;;;;7.43;2.25;;;;;;;12.51;73.36;100829.63;4949896;28;96987;-75
2023/11/16 04:45:43;;;;;;;11.05;2.20;;;;;;;12.47;72.97;100834.16;4947810;28;96911;-75
2023/11/16 04:48:11;;;;;;;10.02;1.90;;;;;;;12.41;73.15;100823.81;4948162;28;99308;-75
2023/11/16 04:50:38;;;;;;;9.43;2.00;;;;;;;12.34;73.53;100830.31;4946047;28;99402;-76
2023/11/16 04:53:04;;;;;;;7.63;2.28;;;;;;;12.30;73.44;100828.72;4949213;28;97105;-74
2023/11/16 04:55:31;;;;;;;7.60;2.00;;;;;;;12.11;74.52;100820.66;4950066;28;96901;-75
2023/11/16 04:57:58;;;;;;;4.65;1.88;;;;;;;12.11;75.01;100827.75;4948491;28;99061;-75
2023/11/16 05:00:25;;;;;;;7.25;2.28;;;;;;;12.36;73.43;100817.88;4948440;28;98929;-74
2023/11/16 05:02:51;;;;;;;8.35;2.28;;;;;;;12.20;73.91;100815.00;4947142;28;98865;-73
2023/11/16 05:05:18;;;;;;;8.77;2.38;;;;;;;12.34;73.75;100815.28;4949883;28;96811;-75
2023/11/16 05:07:45;;;;;;;6.10;2.10;;;;;;;12.18;74.08;100811.53;4956574;28;99111;-75
2023/11/16 05:10:12;;;;;;;7.72;2.20;;;;;;;12.22;73.94;100812.28;4948740;28;99154;-75
2023/11/16 05:12:39;;;;;;;8.60;2.05;;;;;;;12.17;74.33;100815.13;4952982;28;96793;-76
2023/11/16 05:15:10;;;;;;;10.13;2.42;;;;;;;11.95;75.07;100811.59;4955084;28;96951;-75
2023/11/16 05:17:37;;;;;;;6.90;2.25;;;;;;;12.22;74.69;100806.97;4960456;28;100789;-76
2023/11/16 05:20:04;;;;;;;7.38;1.92;;;;;;;12.29;73.88;100793.41;4951668;28;101308;-75
2023/11/16 05:22:30;;;;;;;7.80;2.38;;;;;;;12.49;73.23;100800.53;4956936;28;96753;-76
2023/11/16 05:24:57;;;;;;;5.32;2.25;;;;;;;12.23;74.70;100803.41;4955401;28;96839;-75
2023/11/16 05:27:23;;;;;;;6.03;2.22;;;;;;;12.30;74.42;100802.22;4956423;28;99290;-75
2023/11/16 05:29:49;;;;;;;;;;;;;;;12.61;73.38;100799.13;4956462;28;99198;-74
2023/11/16 05:32:17;;;;;;;8.18;2.95;;;;;;;12.52;73.32;100797.75;4956977;28;97116;-74
2023/11/16 05:34:44;;;;;;;7.57;2.40;;;;;;;12.68;72.58;100792.63;4951123;28;96814;-75
2023/11/16 05:37:11;;;;;;;8.57;2.30;;;;;;;12.62;72.54;100790.25;4956642;28;98886;-75
2023/11/16 05:39:38;;;;;;;6.53;2.25;;;;;;;12.61;73.20;100793.81;4964921;28;99173;-75
2023/11/16 05:42:08;;;;;;;6.68;2.20;;;;;;;12.63;72.50;100799.94;4956336;28;97375;-75
2023/11/16 05:44:34;;;;;;;10.07;2.60;;;;;;;12.64;72.84;100794.56;4967309;28;100380;-74
2023/11/16 05:47:00;;;;;;;7.13;2.40;;;;;;;12.53;72.87;100793.31;4956204;28;98907;-74
2023/11/16 05:49:28;;;;;;;6.07;2.20;;;;;;;12.61;73.24;100794.69;4961619;28;101259;-74
2023/11/16 05:51:55;;;;;;;9.52;2.95;;;;;;;12.61;72.40;100789.38;4959622;28;97502;-74
2023/11/16 05:54:22;;;;;;;7.00;2.00;;;;;;;12.66;72.07;100791.88;4959370;28;99677;-74
2023/11/16 05:56:50;;;;;;;9.50;2.33;;;;;;;12.47;72.80;100786.47;4959342;28;102696;-74
2023/11/16 05:59:17;;;;;;;8.30;2.13;;;;;;;12.65;72.56;100785.69;4964905;28;98259;-75
2023/11/16 06:01:45;;;;;;;7.00;2.55;;;;;;;12.65;72.53;100788.34;4951340;28;96857;-75
2023/11/16 06:04:11;;;;;;;7.97;2.35;;;;;;;12.62;72.10;100782.31;4962143;28;96773;-76
2023/11/16 06:06:39;;;;;;;8.30;2.47;;;;;;;12.64;72.42;100778.66;4951642;28;102240;-76
2023/11/16 06:09:06;;;;;;;5.50;2.03;;;;;;;12.72;71.53;100783.63;4968641;28;98373;-75
2023/11/16 06:11:33;;;;;;;8.27;2.35;;;;;;;12.73;71.92;100777.41;4948848;28;98981;-75
2023/11/16 06:14:00;;;;;;;5.50;2.15;;;;;;;12.72;71.47;100781.84;4954410;28;96914;-74
2023/11/16 06:16:27;;;;;;;6.57;2.05;;;;;;;12.61;72.00;100773.50;4956240;28;98896;-74
2023/11/16 06:18:54;;;;;;;4.75;1.77;;;;;;;12.53;71.65;100775.63;4954222;28;97503;-73
2023/11/16 06:21:20;;;;;;;9.20;2.60;;;;;;;12.51;71.72;100772.19;4956112;28;97201;-75
2023/11/16 06:23:48;;;;;;;9.00;2.25;;;;;;;12.50;72.20;100775.75;4950840;28;96770;-76
2023/11/16 06:26:15;;;;;;;9.40;2.35;;;;;;;12.53;72.32;100761.50;4957588;28;99087;-75
2023/11/16 06:28:41;;;;;;;10.27;1.95;;;;;;;12.51;72.46;100763.34;4958408;28;98679;-75
2023/11/16 06:31:08;;;;;;;9.23;2.50;;;;;;;12.48;72.62;100767.00;4952700;28;96901;-74
2023/11/16 06:33:34;;;;;;;6.63;1.80;;;;;;;12.61;71.88;100767.31;4952220;28;97110;-75
2023/11/16 06:36:02;;;;;;;6.63;2.15;;;;;;;12.67;71.20;100767.91;4947965;28;98722;-76
2023/11/16 06:38:30;;;;;;;7.82;2.22;;;;;;;12.64;71.41;100761.91;4956538;28;98891;-75
2023/11/16 06:40:59;;;;;;;8.15;2.40;;;;;;;12.67;71.01;100752.00;4933287;28;97572;-76
2023/11/16 06:43:26;;;;;;;6.88;2.13;;;;;;;12.76;70.78;100759.56;4936258;28;98952;-74
2023/11/16 06:45:53;;;;;;;6.82;2.03;;;;;;;12.73;70.49;100761.50;4937600;28;99451;-74
2023/11/16 06:48:44;;;;;;;10.95;2.50;;;;;;;12.66;70.89;100758.28;4949130;28;98797;-75
2023/11/16 06:51:11;;;;;;;6.78;2.08;;;;;;;12.55;71.48;100762.28;4954505;28;96809;-74
2023/11/16 06:53:37;;;;;;;6.45;2.17;;;;;;;12.43;71.14;100763.69;4950700;28;97213;-75
2023/11/16 06:56:07;;;;;;;5.35;2.50;;;;;;;12.49;71.78;100751.94;4945638;28;99278;-77
2023/11/16 06:58:35;;;;;;;8.57;2.20;;;;;;;12.61;70.61;100762.88;4952629;28;98929;-75
2023/11/16 07:01:03;;;;;;;9.63;2.20;;;;;;;12.53;71.13;100754.44;4956948;28;96910;-75
2023/11/16 07:03:30;;;;;;;8.82;2.30;;;;;;;12.31;71.22;100745.66;4942420;28;98650;-76
2023/11/16 07:05:57;;;;;;;5.20;1.92;;;;;;;12.32;71.92;100747.38;4952550;28;101247;-75
2023/11/16 07:08:23;;;;;;;10.80;2.30;;;;;;;12.08;72.74;100746.63;4952979;28;99700;-75
2023/11/16 07:10:50;;;;;;;8.75;2.55;;;;;;;12.30;71.92;100750.09;4953501;28;98083;-75
2023/11/16 07:13:19;;;;;;;8.35;1.77;;;;;;;12.45;71.95;100755.69;4943291;28;98663;-76
2023/11/16 07:15:48;;;;;;;9.48;2.30;;;;;;;12.61;70.85;100752.28;4950489;28;98900;-76
2023/11/16 07:18:16;;;;;;;6.30;1.90;;;;;;;12.49;71.07;100752.81;4943338;28;99233;-76
2023/11/16 07:20:44;;;;;;;9.27;2.45;;;;;;;12.61;70.87;100754.06;4944829;28;97750;-75
2023/11/16 07:23:12;;;;;;;7.55;2.30;;;;;;;12.53;70.56;100753.56;4952136;28;98257;-74
2023/11/16 07:25:38;;;;;;;9.10;1.95;;;;;;;12.53;70.95;100751.78;4952727;28;99079;-75
2023/11/16 07:28:05;;;;;;;7.07;1.95;;;;;;;12.70;70.21;100751.88;4948809;28;97522;-76
2023/11/16 07:30:35;;;;;;;8.57;1.83;;;;;;;12.66;69.91;100754.75;4950368;28;96833;-76
2023/11/16 07:33:04;;;;;;;11.13;2.10;;;;;;;12.65;69.89;100750.38;4950985;28;97300;-77
2023/11/16 07:35:34;;;;;;;4.45;1.83;;;;;;;12.97;69.18;100760.41;4951691;28;97632;-78
2023/11/16 07:38:01;;;;;;;7.07;1.80;;;;;;;12.83;69.29;100761.94;4949761;28;99531;-74
2023/11/16 07:40:28;;;;;;;5.55;1.75;;;;;;;12.89;69.00;100756.38;4945986;28;97110;-75
2023/11/16 07:42:54;;;;;;;8.25;2.20;;;;;;;12.89;68.93;100757.22;4951543;28;96959;-75
2023/11/16 07:45:21;;;;;;;6.13;2.00;;;;;;;12.98;69.08;100766.56;4948161;28;99639;-74
2023/11/16 07:47:50;;;;;;;8.75;1.98;;;;;;;12.73;69.96;100761.50;4950395;28;99875;-75
2023/11/16 07:50:18;;;;;;;8.68;1.75;;;;;;;12.51;70.49;100755.41;4948378;28;96904;-77
2023/11/16 07:52:44;;;;;;;9.30;2.40;;;;;;;12.49;71.43;100754.59;4946304;28;96802;-76
2023/11/16 07:55:15;;;;;;;8.80;1.80;;;;;;;12.61;71.29;100751.41;4944011;28;103266;-76
2023/11/16 07:57:43;;;;;;;9.55;2.90;;;;;;;12.60;70.72;100757.66;4948810;28;101384;-77
2023/11/16 08:00:16;;;;;;;6.55;2.15;;;;;;;12.79;71.00;100747.97;4946767;28;96984;-76
2023/11/16 08:05:26;;;;;;;11.20;2.22;;;;;;;12.73;71.33;100751.72;4947397;28;98642;-75
2023/11/16 08:07:55;;;;;;;6.70;1.98;;;;;;;12.49;72.99;100757.25;4943935;28;98919;-74
2023/11/16 08:10:27;;;;;;;8.45;1.48;;;;;;;12.49;73.25;100762.56;4948013;28;96911;-74
2023/11/16 08:13:01;;;;;;;10.25;2.30;;;;;;;12.70;72.92;100761.63;4950026;28;96731;-75
2023/11/16 08:15:28;;;;;;;10.55;2.05;;;;;;;12.57;73.25;100753.34;4939692;28;99300;-75
2023/11/16 08:17:54;;;;;;;8.02;1.98;;;;;;;12.68;73.00;100745.78;4944567;28;101138;-75
2023/11/16 08:20:23;;;;;;;12.85;2.17;;;;;;;12.45;73.64;100766.28;4949168;28;97360;-75
2023/11/16 08:22:51;;;;;;;7.88;1.77;;;;;;;12.64;73.04;100759.25;4947021;28;98758;-75
2023/11/16 08:25:21;;;;;;;9.25;2.83;;;;;;;12.61;73.60;100759.38;4942807;28;98558;-75
2023/11/16 08:27:49;;;;;;;7.70;1.95;;;;;;;12.84;72.08;100753.94;4938708;28;99145;-75
2023/11/16 08:30:17;;;;;;;7.88;2.45;;;;;;;12.80;71.95;100757.63;4943126;28;97150;-74
2023/11/16 08:32:43;;;;;;;8.63;1.85;;;;;;;12.75;72.71;100765.78;4947332;28;97665;-74
2023/11/16 08:35:13;;;;;;;13.52;2.65;;;;;;;12.89;72.11;100757.22;4946255;28;102758;-75
2023/11/16 08:37:40;;;;;;;19.65;2.17;;;;;;;12.49;72.86;100767.84;4943488;28;97512;-76
2023/11/16 08:40:09;;;;;;;9.25;2.10;;;;;;;12.66;73.06;100783.91;4945256;28;98613;-76
2023/11/16 08:42:41;;;;;;;12.00;1.73;;;;;;;12.56;73.27;100774.63;4945484;28;97662;-73
2023/11/16 08:45:17;;;;;;;8.95;1.60;;;;;;;12.72;72.75;100773.91;4942884;28;100389;-73
2023/11/16 08:47:44;;;;;;;4.82;1.60;;;;;;;12.64;72.74;100780.47;4948286;28;99261;-75
2023/11/16 08:50:12;;;;;;;5.05;1.52;;;;;;;12.70;73.18;100777.53;4946312;28;97468;-73
2023/11/16 08:52:41;;;;;;;7.47;2.08;;;;;;;12.67;73.11;100777.66;4955228;28;99119;-74
2023/11/16 08:55:10;;;;;;;7.13;1.92;;;;;;;12.61;73.37;100784.09;4948968;28;99390;-74
2023/11/16 08:57:38;;;;;;;7.53;1.85;;;;;;;12.66;73.27;100782.13;4945165;28;98760;-74
2023/11/16 09:00:27;;;;;;;9.60;1.63;;;;;;;12.89;72.30;100777.59;4951699;28;96996;-74
2023/11/16 09:02:55;;;;;;;7.53;1.92;;;;;;;13.00;71.69;100781.47;4941030;28;96909;-75
2023/11/16 09:05:23;;;;;;;11.50;2.40;;;;;;;12.78;72.58;100791.31;4945907;28;99630;-74
2023/11/16 09:07:50;;;;;;;8.10;1.85;;;;;;;12.90;72.16;100782.81;4946141;28;97748;-74
2023/11/16 09:10:19;;;;;;;7.20;1.90;;;;;;;13.11;70.90;100778.34;4945312;28;96854;-75
2023/11/16 09:12:47;;;;;;;7.35;2.20;;;;;;;13.20;70.01;100785.03;4948815;28;97331;-75
2023/11/16 09:15:14;;;;;;;6.50;1.48;;;;;;;13.32;69.55;100797.78;4943047;28;99210;-75
2023/11/16 09:17:44;;;;;;;6.70;1.75;;;;;;;13.01;71.19;100788.50;4947641;28;101533;-74
2023/11/16 09:20:12;;;;;;;5.55;1.63;;;;;;;12.76;71.09;100796.69;4942447;28;97264;-75
2023/11/16 09:22:39;;;;;;;4.32;1.58;;;;;;;12.70;71.17;100793.44;4945577;28;96880;-74
2023/11/16 09:25:07;;;;;;;9.02;1.70;;;;;;;12.65;71.54;100780.41;4945264;28;100599;-75
2023/11/16 09:27:38;;;;;;;5.88;1.70;;;;;;;12.71;71.43;100779.25;4940840;28;98982;-76
2023/11/16 09:30:06;;;;;;;7.07;1.52;;;;;;;12.71;71.41;100772.19;4947161;28;97122;-75
2023/11/16 09:32:32;;;;;;;7.55;1.40;;;;;;;12.89;70.77;100762.53;4944723;28;97670;-74
2023/11/16 09:34:59;;;;;;;5.57;1.48;;;;;;;12.73;71.42;100757.03;4940489;28;99265;-74
2023/11/16 09:37:27;;;;;;;12.50;1.80;;;;;;;13.03;70.14;100764.56;4946790;28;99871;-75
2023/11/16 09:39:56;;;;;;;4.20;1.95;;;;;;;12.84;70.63;100774.28;4945720;28;97204;-74
2023/11/16 09:42:26;;;;;;;5.10;1.55;;;;;;;13.07;69.69;100774.97;4947890;28;97095;-74
2023/11/16 09:44:58;;;;;;;9.38;1.73;;;;;;;13.01;70.09;100769.94;4944163;28;100608;-74
2023/11/16 09:47:29;;;;;;;6.45;1.35;;;;;;;12.97;69.66;100767.50;4947356;28;101363;-73
2023/11/16 09:49:56;;;;;;;4.22;1.40;;;;;;;12.89;70.59;100773.16;4943981;28;97094;-73
2023/11/16 09:52:22;;;;;;;8.13;1.55;;;;;;;12.97;70.57;100768.38;4946163;28;97193;-74
2023/11/16 09:54:50;;;;;;;8.38;2.03;;;;;;;13.10;68.37;100766.88;4941778;28;97809;-74
2023/11/16 09:57:19;;;;;;;6.40;1.45;;;;;;;12.95;68.67;100767.56;4946620;28;99156;-73
2023/11/16 09:59:48;;;;;;;2.13;0.70;;;;;;;12.89;64.89;100767.84;4948823;28;97310;-73
2023/11/16 10:02:18;;;;;;;3.13;0.60;;;;;;;13.14;63.58;100763.19;4947064;28;96801;-73
2023/11/16 10:04:47;;;;;;;4.22;0.80;;;;;;;13.34;60.36;100751.66;4945156;28;99020;-74
2023/11/16 10:07:16;;;;;;;1.17;0.60;;;;;;;13.88;59.71;100744.63;4944697;28;98230;-74
2023/11/16 10:09:43;;;;;;;0.73;0.35;;;;;;;14.06;57.83;100734.88;4945011;28;98567;-74
2023/11/16 10:12:11;;;;;;;5.15;0.77;;;;;;;14.37;56.68;100740.38;4942536;28;98109;-73
2023/11/16 10:14:41;;;;;;;1.52;0.30;;;;;;;14.10;55.39;100723.19;4943022;28;98906;-73
2023/11/16 10:17:07;;;;;;;1.00;0.30;;;;;;;13.87;54.51;100735.81;4950316;28;100545;-74
2023/11/16 10:19:35;;;;;;;8.20;0.40;;;;;;;13.61;54.72;100736.19;4949830;28;97316;-75
2023/11/16 10:22:02;;;;;;;6.22;0.77;;;;;;;13.49;54.82;100727.03;4950970;28;98166;-74
2023/11/16 10:24:28;;;;;;;1.63;0.35;;;;;;;13.32;55.41;100731.44;4946804;28;100505;-74
2023/11/16 10:26:55;;;;;;;1.95;0.35;;;;;;;13.36;55.46;100723.25;4947308;28;98792;-74
2023/11/16 10:29:21;;;;;;;1.45;0.30;;;;;;;13.01;56.34;100708.06;4946012;28;97523;-74
2023/11/16 10:31:48;;;;;;;1.00;0.20;;;;;;;13.11;54.09;100720.84;4949136;28;96846;-74
2023/11/16 10:34:15;;;;;;;0.22;0.10;;;;;;;13.61;54.36;100709.66;4942588;28;99435;-74
2023/11/16 10:36:44;;;;;;;2.88;0.30;;;;;;;13.78;53.44;100709.72;4941250;28;98911;-74
2023/11/16 10:39:12;;;;;;;2.13;0.25;;;;;;;13.10;51.64;100711.16;4945779;28;97373;-74
2023/11/16 10:41:40;;;;;;;4.25;0.30;;;;;;;13.27;51.19;100707.75;4947608;28;96964;-74
2023/11/16 10:44:07;;;;;;;0.65;0.10;;;;;;;12.64;51.93;100703.59;4948497;28;98847;-75
2023/11/16 10:46:34;;;;;;;0.70;0.13;;;;;;;12.82;52.58;100697.44;4946029;28;99149;-73
2023/11/16 10:49:00;;;;;;;2.90;0.40;;;;;;;13.44;51.87;100699.88;4944605;28;97315;-74
2023/11/16 10:51:28;;;;;;;2.88;0.40;;;;;;;13.35;50.61;100704.72;4946973;28;98901;-76
2023/11/16 10:54:02;;;;;;;2.45;0.20;;;;;;;13.72;50.62;100701.19;4947399;28;99449;-75
2023/11/16 10:56:29;;;;;;;1.10;0.30;;;;;;;13.16;50.00;100708.25;4946912;28;99207;-74
2023/11/16 10:58:57;;;;;;;4.63;0.30;;;;;;;13.43;50.80;100710.53;4948779;28;97867;-74
2023/11/16 11:01:24;;;;;;;3.63;0.50;;;;;;;13.32;50.78;100715.50;4950422;28;97666;-74
2023/11/16 11:03:56;;;;;;;1.65;0.20;;;;;;;13.18;50.16;100720.59;4945053;28;102228;-75
2023/11/16 11:06:25;;;;;;;0.47;0.30;;;;;;;13.26;49.77;100710.50;4951876;28;98860;-75
2023/11/16 11:08:53;;;;;;;19.75;1.42;;;;;;;13.30;49.65;100723.53;4946774;28;98757;-75
2023/11/16 11:11:24;;;;;;;2.28;0.30;;;;;;;13.36;50.20;100727.69;4947489;28;100593;-74
2023/11/16 11:13:53;;;;;;;5.13;0.30;;;;;;;13.34;50.11;100721.59;4947121;28;102027;-73
2023/11/16 11:16:19;;;;;;;0.47;0.25;;;;;;;13.21;51.29;100717.78;4947038;28;98953;-75
2023/11/16 11:18:51;;;;;;;2.00;0.38;;;;;;;13.64;50.69;100712.19;4943462;28;98621;-75
2023/11/16 11:21:20;;;;;;;4.10;0.30;;;;;;;13.71;50.14;100713.59;4946616;28;96830;-73
2023/11/16 11:23:58;;;;;;;3.63;0.50;;;;;;;13.00;51.60;100728.41;4947730;28;98834;-73
2023/11/16 11:26:37;;;;;;;4.47;0.28;;;;;;;12.77;52.31;100718.00;4945653;28;99107;-73
2023/11/16 11:29:05;;;;;;;1.00;0.20;;;;;;;12.88;52.42;100717.50;4943010;28;97392;-74